sensor_id;sensor_type;location;lat;lon;timestamp;temperature;humidity
40454;DHT22;26160;51.858;4.398;2024-03-08T00:00:18;4.30;80.10
40454;DHT22;26160;51.858;4.398;2024-03-08T00:02:48;4.30;81.80
40454;DHT22;26160;51.858;4.398;2024-03-08T00:05:16;4.20;81.20
40454;DHT22;26160;51.858;4.398;2024-03-08T00:07:44;4.20;82.00
40454;DHT22;26160;51.858;4.398;2024-03-08T00:10:12;4.10;81.10
40454;DHT22;26160;51.858;4.398;2024-03-08T00:12:42;4.10;83.40
40454;DHT22;26160;51.858;4.398;2024-03-08T00:15:13;4.10;83.70
40454;DHT22;26160;51.858;4.398;2024-03-08T00:17:44;4.00;85.30
40454;DHT22;26160;51.858;4.398;2024-03-08T00:20:10;4.10;86.30
40454;DHT22;26160;51.858;4.398;2024-03-08T00:22:39;4.00;84.90
40454;DHT22;26160;51.858;4.398;2024-03-08T00:25:07;4.00;83.20
40454;DHT22;26160;51.858;4.398;2024-03-08T00:27:36;4.10;80.50
40454;DHT22;26160;51.858;4.398;2024-03-08T00:30:04;4.00;79.40
40454;DHT22;26160;51.858;4.398;2024-03-08T00:32:31;4.00;78.00
40454;DHT22;26160;51.858;4.398;2024-03-08T00:34:58;4.00;77.30
40454;DHT22;26160;51.858;4.398;2024-03-08T00:37:24;4.00;74.70
40454;DHT22;26160;51.858;4.398;2024-03-08T00:39:51;4.00;74.70
40454;DHT22;26160;51.858;4.398;2024-03-08T00:42:18;4.00;75.00
40454;DHT22;26160;51.858;4.398;2024-03-08T00:44:44;3.90;75.90
40454;DHT22;26160;51.858;4.398;2024-03-08T00:47:11;3.90;78.20
40454;DHT22;26160;51.858;4.398;2024-03-08T00:49:37;3.90;77.40
40454;DHT22;26160;51.858;4.398;2024-03-08T00:52:04;3.90;74.00
40454;DHT22;26160;51.858;4.398;2024-03-08T00:54:34;3.90;70.30
40454;DHT22;26160;51.858;4.398;2024-03-08T00:57:02;4.00;68.30
40454;DHT22;26160;51.858;4.398;2024-03-08T00:59:29;3.90;64.80
40454;DHT22;26160;51.858;4.398;2024-03-08T01:01:55;3.90;65.50
40454;DHT22;26160;51.858;4.398;2024-03-08T01:04:22;3.80;67.90
40454;DHT22;26160;51.858;4.398;2024-03-08T01:06:49;3.80;68.80
40454;DHT22;26160;51.858;4.398;2024-03-08T01:09:15;3.80;70.40
40454;DHT22;26160;51.858;4.398;2024-03-08T01:11:43;3.80;70.00
40454;DHT22;26160;51.858;4.398;2024-03-08T01:14:09;3.80;68.70
40454;DHT22;26160;51.858;4.398;2024-03-08T01:16:35;3.70;70.00
40454;DHT22;26160;51.858;4.398;2024-03-08T01:19:02;3.70;68.80
40454;DHT22;26160;51.858;4.398;2024-03-08T01:21:29;3.70;68.70
40454;DHT22;26160;51.858;4.398;2024-03-08T01:23:55;3.70;67.70
40454;DHT22;26160;51.858;4.398;2024-03-08T01:26:21;3.70;67.30
40454;DHT22;26160;51.858;4.398;2024-03-08T01:28:48;3.70;69.00
40454;DHT22;26160;51.858;4.398;2024-03-08T01:31:14;3.70;61.50
40454;DHT22;26160;51.858;4.398;2024-03-08T01:33:42;3.60;59.40
40454;DHT22;26160;51.858;4.398;2024-03-08T01:36:08;3.60;59.60
40454;DHT22;26160;51.858;4.398;2024-03-08T01:38:34;3.60;59.50
40454;DHT22;26160;51.858;4.398;2024-03-08T01:41:02;3.60;62.20
40454;DHT22;26160;51.858;4.398;2024-03-08T01:43:29;3.50;62.00
40454;DHT22;26160;51.858;4.398;2024-03-08T01:45:58;3.50;64.60
40454;DHT22;26160;51.858;4.398;2024-03-08T01:48:28;3.50;65.50
40454;DHT22;26160;51.858;4.398;2024-03-08T01:50:56;3.50;64.20
40454;DHT22;26160;51.858;4.398;2024-03-08T01:53:24;3.40;63.80
40454;DHT22;26160;51.858;4.398;2024-03-08T01:55:55;3.40;64.50
40454;DHT22;26160;51.858;4.398;2024-03-08T01:58:23;3.40;62.70
40454;DHT22;26160;51.858;4.398;2024-03-08T02:03:25;3.40;63.60
40454;DHT22;26160;51.858;4.398;2024-03-08T02:05:51;3.40;65.30
40454;DHT22;26160;51.858;4.398;2024-03-08T02:08:19;3.30;64.60
40454;DHT22;26160;51.858;4.398;2024-03-08T02:10:48;3.30;64.40
40454;DHT22;26160;51.858;4.398;2024-03-08T02:13:15;3.30;65.80
40454;DHT22;26160;51.858;4.398;2024-03-08T02:18:20;3.20;65.40
40454;DHT22;26160;51.858;4.398;2024-03-08T02:20:51;3.20;64.40
40454;DHT22;26160;51.858;4.398;2024-03-08T02:23:19;3.20;66.20
40454;DHT22;26160;51.858;4.398;2024-03-08T02:25:46;3.20;61.50
40454;DHT22;26160;51.858;4.398;2024-03-08T02:28:13;3.30;57.80
40454;DHT22;26160;51.858;4.398;2024-03-08T02:30:40;3.20;55.60
40454;DHT22;26160;51.858;4.398;2024-03-08T02:33:06;3.20;54.40
40454;DHT22;26160;51.858;4.398;2024-03-08T02:35:33;3.20;52.30
40454;DHT22;26160;51.858;4.398;2024-03-08T02:37:59;3.20;52.80
40454;DHT22;26160;51.858;4.398;2024-03-08T02:40:26;3.10;52.10
40454;DHT22;26160;51.858;4.398;2024-03-08T02:42:52;3.10;52.00
40454;DHT22;26160;51.858;4.398;2024-03-08T02:45:18;3.10;52.10
40454;DHT22;26160;51.858;4.398;2024-03-08T02:47:44;3.10;51.10
40454;DHT22;26160;51.858;4.398;2024-03-08T02:50:11;3.10;53.00
40454;DHT22;26160;51.858;4.398;2024-03-08T02:52:37;3.00;53.20
40454;DHT22;26160;51.858;4.398;2024-03-08T02:55:04;3.10;50.40
40454;DHT22;26160;51.858;4.398;2024-03-08T02:57:32;3.00;48.70
40454;DHT22;26160;51.858;4.398;2024-03-08T02:59:58;3.00;48.10
40454;DHT22;26160;51.858;4.398;2024-03-08T03:02:25;2.90;52.00
40454;DHT22;26160;51.858;4.398;2024-03-08T03:04:52;2.90;54.40
40454;DHT22;26160;51.858;4.398;2024-03-08T03:07:19;2.90;55.00
40454;DHT22;26160;51.858;4.398;2024-03-08T03:09:45;2.80;54.60
40454;DHT22;26160;51.858;4.398;2024-03-08T03:12:11;2.90;53.00
40454;DHT22;26160;51.858;4.398;2024-03-08T03:14:38;2.90;52.50
40454;DHT22;26160;51.858;4.398;2024-03-08T03:17:04;2.90;49.20
40454;DHT22;26160;51.858;4.398;2024-03-08T03:19:31;2.80;48.50
40454;DHT22;26160;51.858;4.398;2024-03-08T03:21:57;2.80;48.50
40454;DHT22;26160;51.858;4.398;2024-03-08T03:24:23;2.80;51.10
40454;DHT22;26160;51.858;4.398;2024-03-08T03:26:49;2.80;50.90
40454;DHT22;26160;51.858;4.398;2024-03-08T03:29:16;2.70;51.70
40454;DHT22;26160;51.858;4.398;2024-03-08T03:31:43;2.70;51.70
40454;DHT22;26160;51.858;4.398;2024-03-08T03:34:13;2.70;54.30
40454;DHT22;26160;51.858;4.398;2024-03-08T03:36:39;2.60;55.00
40454;DHT22;26160;51.858;4.398;2024-03-08T03:39:11;2.60;55.10
40454;DHT22;26160;51.858;4.398;2024-03-08T03:41:42;2.60;54.90
40454;DHT22;26160;51.858;4.398;2024-03-08T03:44:10;2.60;53.70
40454;DHT22;26160;51.858;4.398;2024-03-08T03:46:36;2.60;53.10
40454;DHT22;26160;51.858;4.398;2024-03-08T03:49:02;2.60;54.10
40454;DHT22;26160;51.858;4.398;2024-03-08T03:51:29;2.60;54.20
40454;DHT22;26160;51.858;4.398;2024-03-08T03:53:56;2.60;52.90
40454;DHT22;26160;51.858;4.398;2024-03-08T03:56:26;2.50;51.70
40454;DHT22;26160;51.858;4.398;2024-03-08T03:58:52;2.50;52.70
40454;DHT22;26160;51.858;4.398;2024-03-08T04:01:19;2.50;52.70
40454;DHT22;26160;51.858;4.398;2024-03-08T04:03:45;2.50;53.00
40454;DHT22;26160;51.858;4.398;2024-03-08T04:06:11;2.50;53.80
40454;DHT22;26160;51.858;4.398;2024-03-08T04:08:37;2.50;53.60
40454;DHT22;26160;51.858;4.398;2024-03-08T04:11:04;2.40;53.50
40454;DHT22;26160;51.858;4.398;2024-03-08T04:13:30;2.40;55.60
40454;DHT22;26160;51.858;4.398;2024-03-08T04:15:56;2.40;55.40
40454;DHT22;26160;51.858;4.398;2024-03-08T04:18:22;2.40;54.30
40454;DHT22;26160;51.858;4.398;2024-03-08T04:20:48;2.40;54.60
40454;DHT22;26160;51.858;4.398;2024-03-08T04:23:15;2.40;52.50
40454;DHT22;26160;51.858;4.398;2024-03-08T04:25:42;2.30;53.50
40454;DHT22;26160;51.858;4.398;2024-03-08T04:28:09;2.30;54.90
40454;DHT22;26160;51.858;4.398;2024-03-08T04:30:39;2.30;54.70
40454;DHT22;26160;51.858;4.398;2024-03-08T04:33:05;2.30;54.10
40454;DHT22;26160;51.858;4.398;2024-03-08T04:35:34;2.20;52.50
40454;DHT22;26160;51.858;4.398;2024-03-08T04:38:01;2.30;50.40
40454;DHT22;26160;51.858;4.398;2024-03-08T04:40:27;2.20;49.40
40454;DHT22;26160;51.858;4.398;2024-03-08T04:42:53;2.20;51.00
40454;DHT22;26160;51.858;4.398;2024-03-08T04:45:19;2.30;49.90
40454;DHT22;26160;51.858;4.398;2024-03-08T04:47:47;2.30;46.60
40454;DHT22;26160;51.858;4.398;2024-03-08T04:50:14;2.20;45.20
40454;DHT22;26160;51.858;4.398;2024-03-08T04:52:40;2.20;47.60
40454;DHT22;26160;51.858;4.398;2024-03-08T04:55:06;2.20;49.40
40454;DHT22;26160;51.858;4.398;2024-03-08T04:57:33;2.10;48.60
40454;DHT22;26160;51.858;4.398;2024-03-08T04:59:59;2.10;49.50
40454;DHT22;26160;51.858;4.398;2024-03-08T05:02:25;2.10;50.90
40454;DHT22;26160;51.858;4.398;2024-03-08T05:04:51;2.10;48.50
40454;DHT22;26160;51.858;4.398;2024-03-08T05:07:18;2.10;48.80
40454;DHT22;26160;51.858;4.398;2024-03-08T05:09:45;2.10;46.30
40454;DHT22;26160;51.858;4.398;2024-03-08T05:12:18;2.10;43.10
40454;DHT22;26160;51.858;4.398;2024-03-08T05:14:45;2.10;41.60
40454;DHT22;26160;51.858;4.398;2024-03-08T05:17:16;2.10;42.00
40454;DHT22;26160;51.858;4.398;2024-03-08T05:19:45;2.10;41.80
40454;DHT22;26160;51.858;4.398;2024-03-08T05:22:11;2.00;42.20
40454;DHT22;26160;51.858;4.398;2024-03-08T05:24:37;2.10;42.60
40454;DHT22;26160;51.858;4.398;2024-03-08T05:27:03;2.10;41.70
40454;DHT22;26160;51.858;4.398;2024-03-08T05:29:30;2.00;41.50
40454;DHT22;26160;51.858;4.398;2024-03-08T05:31:56;2.10;40.00
40454;DHT22;26160;51.858;4.398;2024-03-08T05:34:23;2.00;37.60
40454;DHT22;26160;51.858;4.398;2024-03-08T05:36:50;2.00;38.40
40454;DHT22;26160;51.858;4.398;2024-03-08T05:39:17;2.10;38.30
40454;DHT22;26160;51.858;4.398;2024-03-08T05:41:44;2.00;36.10
40454;DHT22;26160;51.858;4.398;2024-03-08T05:44:12;2.00;37.10
40454;DHT22;26160;51.858;4.398;2024-03-08T05:46:39;2.00;38.80
40454;DHT22;26160;51.858;4.398;2024-03-08T05:49:06;2.00;39.70
40454;DHT22;26160;51.858;4.398;2024-03-08T05:51:33;1.90;37.70
40454;DHT22;26160;51.858;4.398;2024-03-08T05:54:06;1.90;38.20
40454;DHT22;26160;51.858;4.398;2024-03-08T05:56:33;1.90;37.50
40454;DHT22;26160;51.858;4.398;2024-03-08T05:58:59;1.90;38.80
40454;DHT22;26160;51.858;4.398;2024-03-08T06:01:26;1.90;39.90
40454;DHT22;26160;51.858;4.398;2024-03-08T06:03:53;1.90;37.40
40454;DHT22;26160;51.858;4.398;2024-03-08T06:06:22;1.90;35.80
40454;DHT22;26160;51.858;4.398;2024-03-08T06:08:49;1.90;37.10
40454;DHT22;26160;51.858;4.398;2024-03-08T06:11:16;2.00;34.20
40454;DHT22;26160;51.858;4.398;2024-03-08T06:13:47;2.00;30.80
40454;DHT22;26160;51.858;4.398;2024-03-08T06:16:13;1.90;32.00
40454;DHT22;26160;51.858;4.398;2024-03-08T06:18:39;1.90;30.00
40454;DHT22;26160;51.858;4.398;2024-03-08T06:21:06;2.00;29.30
40454;DHT22;26160;51.858;4.398;2024-03-08T06:23:35;1.90;29.20
40454;DHT22;26160;51.858;4.398;2024-03-08T06:26:05;1.90;28.40
40454;DHT22;26160;51.858;4.398;2024-03-08T06:28:31;2.00;25.90
40454;DHT22;26160;51.858;4.398;2024-03-08T06:30:59;2.00;26.20
40454;DHT22;26160;51.858;4.398;2024-03-08T06:33:25;2.00;25.20
40454;DHT22;26160;51.858;4.398;2024-03-08T06:35:57;1.90;24.50
40454;DHT22;26160;51.858;4.398;2024-03-08T06:38:24;1.90;26.30
40454;DHT22;26160;51.858;4.398;2024-03-08T06:40:51;2.00;24.40
40454;DHT22;26160;51.858;4.398;2024-03-08T06:43:17;1.90;22.70
40454;DHT22;26160;51.858;4.398;2024-03-08T06:45:47;2.00;21.90
40454;DHT22;26160;51.858;4.398;2024-03-08T06:48:17;2.00;22.80
40454;DHT22;26160;51.858;4.398;2024-03-08T06:50:44;2.00;22.60
40454;DHT22;26160;51.858;4.398;2024-03-08T06:53:11;2.00;21.30
40454;DHT22;26160;51.858;4.398;2024-03-08T06:55:38;2.10;17.50
40454;DHT22;26160;51.858;4.398;2024-03-08T06:58:04;2.10;16.20
40454;DHT22;26160;51.858;4.398;2024-03-08T07:00:30;2.10;14.90
40454;DHT22;26160;51.858;4.398;2024-03-08T07:02:57;2.10;12.60
40454;DHT22;26160;51.858;4.398;2024-03-08T07:05:30;2.20;11.30
40454;DHT22;26160;51.858;4.398;2024-03-08T07:07:56;2.20;9.80
40454;DHT22;26160;51.858;4.398;2024-03-08T07:10:22;2.20;8.30
40454;DHT22;26160;51.858;4.398;2024-03-08T07:12:52;2.30;6.70
40454;DHT22;26160;51.858;4.398;2024-03-08T07:15:19;2.30;5.90
40454;DHT22;26160;51.858;4.398;2024-03-08T07:17:46;2.30;3.60
40454;DHT22;26160;51.858;4.398;2024-03-08T07:20:13;2.40;3.60
40454;DHT22;26160;51.858;4.398;2024-03-08T07:22:41;2.40;3.10
40454;DHT22;26160;51.858;4.398;2024-03-08T07:25:08;2.40;1.00
40454;DHT22;26160;51.858;4.398;2024-03-08T07:27:54;2.50;1.00
40454;DHT22;26160;51.858;4.398;2024-03-08T07:30:22;2.50;1.00
40454;DHT22;26160;51.858;4.398;2024-03-08T07:33:07;2.60;1.00
40454;DHT22;26160;51.858;4.398;2024-03-08T07:35:33;2.60;1.00
40454;DHT22;26160;51.858;4.398;2024-03-08T07:38:12;2.70;1.00
40454;DHT22;26160;51.858;4.398;2024-03-08T07:40:41;2.70;1.00
40454;DHT22;26160;51.858;4.398;2024-03-08T07:43:10;2.80;1.00
40454;DHT22;26160;51.858;4.398;2024-03-08T07:45:38;2.90;1.00
40454;DHT22;26160;51.858;4.398;2024-03-08T07:48:04;2.90;1.00
40454;DHT22;26160;51.858;4.398;2024-03-08T07:50:39;3.00;1.00
40454;DHT22;26160;51.858;4.398;2024-03-08T07:53:06;3.10;1.00
40454;DHT22;26160;51.858;4.398;2024-03-08T07:55:33;3.20;1.00
40454;DHT22;26160;51.858;4.398;2024-03-08T07:58:00;3.20;1.00
40454;DHT22;26160;51.858;4.398;2024-03-08T08:00:26;3.20;1.00
40454;DHT22;26160;51.858;4.398;2024-03-08T08:02:53;3.30;1.00
40454;DHT22;26160;51.858;4.398;2024-03-08T08:05:20;3.30;1.00
40454;DHT22;26160;51.858;4.398;2024-03-08T08:07:46;3.40;1.00
40454;DHT22;26160;51.858;4.398;2024-03-08T08:10:13;3.50;1.00
40454;DHT22;26160;51.858;4.398;2024-03-08T08:12:51;3.50;1.00
40454;DHT22;26160;51.858;4.398;2024-03-08T08:15:17;3.60;1.00
40454;DHT22;26160;51.858;4.398;2024-03-08T08:17:47;3.60;1.00
40454;DHT22;26160;51.858;4.398;2024-03-08T08:20:15;3.70;1.00
40454;DHT22;26160;51.858;4.398;2024-03-08T08:22:44;3.70;1.00
40454;DHT22;26160;51.858;4.398;2024-03-08T08:25:10;3.80;1.00
40454;DHT22;26160;51.858;4.398;2024-03-08T08:27:41;3.80;1.00
40454;DHT22;26160;51.858;4.398;2024-03-08T08:30:14;3.80;1.00
40454;DHT22;26160;51.858;4.398;2024-03-08T08:32:40;3.90;1.00
40454;DHT22;26160;51.858;4.398;2024-03-08T08:35:08;4.00;1.00
40454;DHT22;26160;51.858;4.398;2024-03-08T08:37:35;4.00;1.00
40454;DHT22;26160;51.858;4.398;2024-03-08T08:40:04;4.10;1.00
40454;DHT22;26160;51.858;4.398;2024-03-08T08:42:34;4.20;1.00
40454;DHT22;26160;51.858;4.398;2024-03-08T08:45:00;4.20;1.00
40454;DHT22;26160;51.858;4.398;2024-03-08T08:47:35;4.30;1.00
40454;DHT22;26160;51.858;4.398;2024-03-08T08:50:01;4.30;1.00
40454;DHT22;26160;51.858;4.398;2024-03-08T08:52:28;4.40;1.00
40454;DHT22;26160;51.858;4.398;2024-03-08T08:54:55;4.50;1.00
40454;DHT22;26160;51.858;4.398;2024-03-08T08:57:21;4.60;1.00
40454;DHT22;26160;51.858;4.398;2024-03-08T08:59:47;4.70;1.00
40454;DHT22;26160;51.858;4.398;2024-03-08T09:02:13;4.70;1.00
40454;DHT22;26160;51.858;4.398;2024-03-08T09:04:43;4.80;1.00
40454;DHT22;26160;51.858;4.398;2024-03-08T09:07:10;4.90;1.00
40454;DHT22;26160;51.858;4.398;2024-03-08T09:09:36;4.90;1.00
40454;DHT22;26160;51.858;4.398;2024-03-08T09:12:02;5.00;1.00
40454;DHT22;26160;51.858;4.398;2024-03-08T09:14:28;5.10;1.00
40454;DHT22;26160;51.858;4.398;2024-03-08T09:16:55;5.20;1.00
40454;DHT22;26160;51.858;4.398;2024-03-08T09:19:21;5.30;1.00
40454;DHT22;26160;51.858;4.398;2024-03-08T09:21:51;5.40;1.00
40454;DHT22;26160;51.858;4.398;2024-03-08T09:24:17;5.40;1.00
40454;DHT22;26160;51.858;4.398;2024-03-08T09:26:43;5.50;1.00
40454;DHT22;26160;51.858;4.398;2024-03-08T09:29:09;5.50;1.00
40454;DHT22;26160;51.858;4.398;2024-03-08T09:31:36;5.50;1.00
40454;DHT22;26160;51.858;4.398;2024-03-08T09:34:04;5.60;1.00
40454;DHT22;26160;51.858;4.398;2024-03-08T09:36:30;5.70;1.00
40454;DHT22;26160;51.858;4.398;2024-03-08T09:38:58;5.80;1.00
40454;DHT22;26160;51.858;4.398;2024-03-08T09:41:24;5.90;1.00
40454;DHT22;26160;51.858;4.398;2024-03-08T09:43:51;5.90;1.00
40454;DHT22;26160;51.858;4.398;2024-03-08T09:46:19;5.90;1.00
40454;DHT22;26160;51.858;4.398;2024-03-08T09:48:45;6.00;1.00
40454;DHT22;26160;51.858;4.398;2024-03-08T09:51:12;6.20;1.00
40454;DHT22;26160;51.858;4.398;2024-03-08T09:53:41;6.30;1.00
40454;DHT22;26160;51.858;4.398;2024-03-08T09:56:10;6.30;1.00
40454;DHT22;26160;51.858;4.398;2024-03-08T09:58:38;6.30;1.00
40454;DHT22;26160;51.858;4.398;2024-03-08T10:01:20;6.40;1.00
40454;DHT22;26160;51.858;4.398;2024-03-08T10:03:47;6.60;1.00
40454;DHT22;26160;51.858;4.398;2024-03-08T10:06:14;6.70;1.00
40454;DHT22;26160;51.858;4.398;2024-03-08T10:08:40;6.80;1.00
40454;DHT22;26160;51.858;4.398;2024-03-08T10:11:07;7.00;1.00
40454;DHT22;26160;51.858;4.398;2024-03-08T10:13:33;7.10;1.00
40454;DHT22;26160;51.858;4.398;2024-03-08T10:16:00;7.20;99.90
40454;DHT22;26160;51.858;4.398;2024-03-08T10:18:27;7.20;99.90
40454;DHT22;26160;51.858;4.398;2024-03-08T10:21:07;7.20;99.90
40454;DHT22;26160;51.858;4.398;2024-03-08T10:23:36;7.20;99.90
40454;DHT22;26160;51.858;4.398;2024-03-08T10:26:13;7.40;99.90
40454;DHT22;26160;51.858;4.398;2024-03-08T10:28:46;7.50;99.90
40454;DHT22;26160;51.858;4.398;2024-03-08T10:31:16;7.70;6.40
40454;DHT22;26160;51.858;4.398;2024-03-08T10:33:43;7.70;99.90
40454;DHT22;26160;51.858;4.398;2024-03-08T10:36:11;7.80;47.10
40454;DHT22;26160;51.858;4.398;2024-03-08T10:38:38;7.80;1.00
40454;DHT22;26160;51.858;4.398;2024-03-08T10:41:09;7.80;1.00
40454;DHT22;26160;51.858;4.398;2024-03-08T10:52:15;8.30;1.00
40454;DHT22;26160;51.858;4.398;2024-03-08T10:54:43;8.40;99.90
40454;DHT22;26160;51.858;4.398;2024-03-08T10:57:12;8.40;99.90
40454;DHT22;26160;51.858;4.398;2024-03-08T10:59:39;8.60;1.00
40454;DHT22;26160;51.858;4.398;2024-03-08T11:02:05;8.70;1.00
40454;DHT22;26160;51.858;4.398;2024-03-08T11:04:32;8.70;17.30
40454;DHT22;26160;51.858;4.398;2024-03-08T11:07:02;8.80;99.90
40454;DHT22;26160;51.858;4.398;2024-03-08T11:09:36;8.80;1.00
40454;DHT22;26160;51.858;4.398;2024-03-08T11:15:09;8.80;1.00
40454;DHT22;26160;51.858;4.398;2024-03-08T11:20:26;9.20;1.00
40454;DHT22;26160;51.858;4.398;2024-03-08T11:23:00;9.10;1.00
40454;DHT22;26160;51.858;4.398;2024-03-08T11:25:37;9.00;1.00
40454;DHT22;26160;51.858;4.398;2024-03-08T11:28:20;9.20;21.10
40454;DHT22;26160;51.858;4.398;2024-03-08T11:33:39;9.30;1.00
40454;DHT22;26160;51.858;4.398;2024-03-08T11:36:14;9.40;1.00
40454;DHT22;26160;51.858;4.398;2024-03-08T11:38:48;9.50;1.00
40454;DHT22;26160;51.858;4.398;2024-03-08T11:41:18;9.60;62.20
40454;DHT22;26160;51.858;4.398;2024-03-08T11:43:50;9.70;99.90
40454;DHT22;26160;51.858;4.398;2024-03-08T11:46:27;9.60;1.00
40454;DHT22;26160;51.858;4.398;2024-03-08T11:48:54;9.70;1.00
40454;DHT22;26160;51.858;4.398;2024-03-08T11:51:22;9.90;99.90
40454;DHT22;26160;51.858;4.398;2024-03-08T11:53:49;10.10;1.00
40454;DHT22;26160;51.858;4.398;2024-03-08T11:56:16;10.50;99.90
40454;DHT22;26160;51.858;4.398;2024-03-08T11:58:55;10.60;1.00
40454;DHT22;26160;51.858;4.398;2024-03-08T12:01:25;10.70;1.00
40454;DHT22;26160;51.858;4.398;2024-03-08T12:03:55;10.60;1.00
40454;DHT22;26160;51.858;4.398;2024-03-08T12:06:25;10.60;1.00
40454;DHT22;26160;51.858;4.398;2024-03-08T12:08:52;10.60;99.90
40454;DHT22;26160;51.858;4.398;2024-03-08T12:11:20;10.80;1.00
40454;DHT22;26160;51.858;4.398;2024-03-08T12:13:49;11.00;99.90
40454;DHT22;26160;51.858;4.398;2024-03-08T12:16:20;10.60;99.90
40454;DHT22;26160;51.858;4.398;2024-03-08T12:18:51;10.70;1.00
40454;DHT22;26160;51.858;4.398;2024-03-08T12:21:17;10.80;1.00
40454;DHT22;26160;51.858;4.398;2024-03-08T12:23:46;11.00;1.00
40454;DHT22;26160;51.858;4.398;2024-03-08T12:26:18;10.70;1.00
40454;DHT22;26160;51.858;4.398;2024-03-08T12:28:49;10.70;1.00
40454;DHT22;26160;51.858;4.398;2024-03-08T12:31:18;10.80;1.00
40454;DHT22;26160;51.858;4.398;2024-03-08T12:33:53;10.70;99.90
40454;DHT22;26160;51.858;4.398;2024-03-08T12:36:20;10.80;99.90
40454;DHT22;26160;51.858;4.398;2024-03-08T12:38:47;11.00;99.90
40454;DHT22;26160;51.858;4.398;2024-03-08T12:41:17;11.10;99.90
40454;DHT22;26160;51.858;4.398;2024-03-08T12:43:47;11.20;1.00
40454;DHT22;26160;51.858;4.398;2024-03-08T12:46:21;11.20;4.10
40454;DHT22;26160;51.858;4.398;2024-03-08T12:48:48;11.10;1.00
40454;DHT22;26160;51.858;4.398;2024-03-08T12:51:15;11.30;99.90
40454;DHT22;26160;51.858;4.398;2024-03-08T12:53:42;11.50;99.90
40454;DHT22;26160;51.858;4.398;2024-03-08T12:56:34;11.40;1.00
40454;DHT22;26160;51.858;4.398;2024-03-08T12:59:01;11.30;99.90
40454;DHT22;26160;51.858;4.398;2024-03-08T13:01:27;11.40;1.00
40454;DHT22;26160;51.858;4.398;2024-03-08T13:03:54;11.50;76.70
40454;DHT22;26160;51.858;4.398;2024-03-08T13:06:21;11.40;99.90
40454;DHT22;26160;51.858;4.398;2024-03-08T13:08:51;11.40;34.00
40454;DHT22;26160;51.858;4.398;2024-03-08T13:11:18;11.40;99.90
40454;DHT22;26160;51.858;4.398;2024-03-08T13:13:45;11.60;15.00
40454;DHT22;26160;51.858;4.398;2024-03-08T13:16:12;11.60;1.00
40454;DHT22;26160;51.858;4.398;2024-03-08T13:18:41;11.70;1.00
40454;DHT22;26160;51.858;4.398;2024-03-08T13:21:08;11.80;1.00
40454;DHT22;26160;51.858;4.398;2024-03-08T13:23:36;11.70;1.00
40454;DHT22;26160;51.858;4.398;2024-03-08T13:26:09;11.70;1.00
40454;DHT22;26160;51.858;4.398;2024-03-08T13:28:35;11.70;1.00
40454;DHT22;26160;51.858;4.398;2024-03-08T13:31:04;11.80;1.00
40454;DHT22;26160;51.858;4.398;2024-03-08T13:33:36;11.70;1.00
40454;DHT22;26160;51.858;4.398;2024-03-08T13:36:03;11.80;1.00
40454;DHT22;26160;51.858;4.398;2024-03-08T13:38:30;12.00;1.00
40454;DHT22;26160;51.858;4.398;2024-03-08T13:40:58;11.90;99.90
40454;DHT22;26160;51.858;4.398;2024-03-08T13:43:25;11.90;1.00
40454;DHT22;26160;51.858;4.398;2024-03-08T13:45:55;11.90;1.00
40454;DHT22;26160;51.858;4.398;2024-03-08T13:48:21;12.00;1.00
40454;DHT22;26160;51.858;4.398;2024-03-08T13:50:48;12.20;1.00
40454;DHT22;26160;51.858;4.398;2024-03-08T13:53:16;12.30;1.00
40454;DHT22;26160;51.858;4.398;2024-03-08T13:55:42;12.20;99.90
40454;DHT22;26160;51.858;4.398;2024-03-08T13:58:08;12.20;99.90
40454;DHT22;26160;51.858;4.398;2024-03-08T14:00:36;12.20;99.90
40454;DHT22;26160;51.858;4.398;2024-03-08T14:03:02;12.00;99.90
40454;DHT22;26160;51.858;4.398;2024-03-08T14:05:32;11.90;99.90
40454;DHT22;26160;51.858;4.398;2024-03-08T14:08:01;11.70;99.90
40454;DHT22;26160;51.858;4.398;2024-03-08T14:10:33;11.70;99.90
40454;DHT22;26160;51.858;4.398;2024-03-08T14:13:00;11.70;99.90
40454;DHT22;26160;51.858;4.398;2024-03-08T14:15:29;11.80;1.00
40454;DHT22;26160;51.858;4.398;2024-03-08T14:17:56;11.70;99.90
40454;DHT22;26160;51.858;4.398;2024-03-08T14:20:23;11.70;99.90
40454;DHT22;26160;51.858;4.398;2024-03-08T14:22:52;11.70;99.90
40454;DHT22;26160;51.858;4.398;2024-03-08T14:25:19;11.80;99.90
40454;DHT22;26160;51.858;4.398;2024-03-08T14:27:46;11.90;1.00
40454;DHT22;26160;51.858;4.398;2024-03-08T14:30:13;11.90;1.00
40454;DHT22;26160;51.858;4.398;2024-03-08T14:32:40;12.00;1.00
40454;DHT22;26160;51.858;4.398;2024-03-08T14:35:07;12.00;1.00
40454;DHT22;26160;51.858;4.398;2024-03-08T14:37:34;11.90;1.00
40454;DHT22;26160;51.858;4.398;2024-03-08T14:40:00;11.90;1.00
40454;DHT22;26160;51.858;4.398;2024-03-08T14:42:26;11.70;1.00
40454;DHT22;26160;51.858;4.398;2024-03-08T14:44:53;11.70;1.00
40454;DHT22;26160;51.858;4.398;2024-03-08T14:47:20;11.80;1.00
40454;DHT22;26160;51.858;4.398;2024-03-08T14:49:48;11.80;1.00
40454;DHT22;26160;51.858;4.398;2024-03-08T14:52:15;11.80;1.00
40454;DHT22;26160;51.858;4.398;2024-03-08T14:54:54;11.70;1.00
40454;DHT22;26160;51.858;4.398;2024-03-08T14:57:21;11.70;1.00
40454;DHT22;26160;51.858;4.398;2024-03-08T14:59:48;11.60;1.00
40454;DHT22;26160;51.858;4.398;2024-03-08T15:02:14;11.60;1.00
40454;DHT22;26160;51.858;4.398;2024-03-08T15:04:40;11.60;1.00
40454;DHT22;26160;51.858;4.398;2024-03-08T15:07:07;11.70;1.00
40454;DHT22;26160;51.858;4.398;2024-03-08T15:09:36;11.60;1.00
40454;DHT22;26160;51.858;4.398;2024-03-08T15:12:08;11.50;1.00
40454;DHT22;26160;51.858;4.398;2024-03-08T15:14:40;11.30;1.00
40454;DHT22;26160;51.858;4.398;2024-03-08T15:17:06;11.40;61.30
40454;DHT22;26160;51.858;4.398;2024-03-08T15:19:36;11.50;1.00
40454;DHT22;26160;51.858;4.398;2024-03-08T15:22:04;11.50;12.30
40454;DHT22;26160;51.858;4.398;2024-03-08T15:24:30;11.50;1.00
40454;DHT22;26160;51.858;4.398;2024-03-08T15:26:57;11.40;1.00
40454;DHT22;26160;51.858;4.398;2024-03-08T15:29:24;11.40;1.00
40454;DHT22;26160;51.858;4.398;2024-03-08T15:31:52;11.40;99.90
40454;DHT22;26160;51.858;4.398;2024-03-08T15:34:20;11.40;1.00
40454;DHT22;26160;51.858;4.398;2024-03-08T15:36:50;11.20;1.00
40454;DHT22;26160;51.858;4.398;2024-03-08T15:39:18;11.20;99.90
40454;DHT22;26160;51.858;4.398;2024-03-08T15:41:46;11.30;99.90
40454;DHT22;26160;51.858;4.398;2024-03-08T15:44:13;11.20;1.00
40454;DHT22;26160;51.858;4.398;2024-03-08T15:46:39;11.20;12.80
40454;DHT22;26160;51.858;4.398;2024-03-08T15:49:06;11.10;99.90
40454;DHT22;26160;51.858;4.398;2024-03-08T15:51:32;11.10;99.90
40454;DHT22;26160;51.858;4.398;2024-03-08T15:53:59;11.10;99.90
40454;DHT22;26160;51.858;4.398;2024-03-08T15:56:25;11.10;99.90
40454;DHT22;26160;51.858;4.398;2024-03-08T15:58:52;11.10;1.00
40454;DHT22;26160;51.858;4.398;2024-03-08T16:01:19;11.10;1.00
40454;DHT22;26160;51.858;4.398;2024-03-08T16:03:46;11.10;1.00
40454;DHT22;26160;51.858;4.398;2024-03-08T16:06:18;10.90;1.00
40454;DHT22;26160;51.858;4.398;2024-03-08T16:08:49;10.90;1.00
40454;DHT22;26160;51.858;4.398;2024-03-08T16:11:18;10.80;1.00
40454;DHT22;26160;51.858;4.398;2024-03-08T16:13:44;10.80;1.00